sensor_id;sensor_type;location;lat;lon;timestamp;pressure;altitude;pressure_sealevel;temperature;humidity
49072;BME280;74284;52.610;10.236;2024-01-27T00:00:21;102502.69;;;5.85;67.75
49072;BME280;74284;52.610;10.236;2024-01-27T00:02:47;102498.34;;;5.98;67.54
49072;BME280;74284;52.610;10.236;2024-01-27T00:05:12;102503.59;;;5.98;67.33
49072;BME280;74284;52.610;10.236;2024-01-27T00:07:37;102501.00;;;6.00;67.51
49072;BME280;74284;52.610;10.236;2024-01-27T00:10:03;102499.19;;;5.88;68.02
49072;BME280;74284;52.610;10.236;2024-01-27T00:12:29;102512.31;;;5.79;68.31
49072;BME280;74284;52.610;10.236;2024-01-27T00:14:54;102521.94;;;5.68;68.87
49072;BME280;74284;52.610;10.236;2024-01-27T00:17:20;102514.97;;;5.83;68.45
49072;BME280;74284;52.610;10.236;2024-01-27T00:19:49;102514.97;;;5.89;67.99
49072;BME280;74284;52.610;10.236;2024-01-27T00:22:15;102517.63;;;5.94;67.95
49072;BME280;74284;52.610;10.236;2024-01-27T00:24:42;102529.09;;;5.96;67.48
49072;BME280;74284;52.610;10.236;2024-01-27T00:27:07;102521.97;;;5.80;68.27
49072;BME280;74284;52.610;10.236;2024-01-27T00:29:33;102524.66;;;5.92;67.50
49072;BME280;74284;52.610;10.236;2024-01-27T00:31:58;102516.81;;;6.10;66.95
49072;BME280;74284;52.610;10.236;2024-01-27T00:34:24;102527.34;;;6.00;67.67
49072;BME280;74284;52.610;10.236;2024-01-27T00:36:50;102531.75;;;6.05;67.45
49072;BME280;74284;52.610;10.236;2024-01-27T00:39:16;102526.44;;;5.96;68.06
49072;BME280;74284;52.610;10.236;2024-01-27T00:41:41;102521.25;;;6.13;67.67
49072;BME280;74284;52.610;10.236;2024-01-27T00:44:07;102526.47;;;6.02;67.24
49072;BME280;74284;52.610;10.236;2024-01-27T00:46:33;102520.28;;;5.93;67.55
49072;BME280;74284;52.610;10.236;2024-01-27T00:48:58;102526.34;;;5.75;68.38
49072;BME280;74284;52.610;10.236;2024-01-27T00:51:24;102536.06;;;5.82;68.25
49072;BME280;74284;52.610;10.236;2024-01-27T00:53:49;102526.38;;;5.79;68.92
49072;BME280;74284;52.610;10.236;2024-01-27T00:56:15;102532.53;;;5.83;68.31
49072;BME280;74284;52.610;10.236;2024-01-27T00:58:41;102531.66;;;5.82;68.36
49072;BME280;74284;52.610;10.236;2024-01-27T01:01:07;102530.78;;;5.82;68.42
49072;BME280;74284;52.610;10.236;2024-01-27T01:03:32;102533.34;;;5.68;68.64
49072;BME280;74284;52.610;10.236;2024-01-27T01:06:01;102526.34;;;5.69;68.77
49072;BME280;74284;52.610;10.236;2024-01-27T01:08:33;102536.81;;;5.61;68.84
49072;BME280;74284;52.610;10.236;2024-01-27T01:10:59;102536.81;;;5.61;69.04
49072;BME280;74284;52.610;10.236;2024-01-27T01:13:25;102533.41;;;5.85;68.64
49072;BME280;74284;52.610;10.236;2024-01-27T01:15:51;102537.72;;;5.66;68.88
49072;BME280;74284;52.610;10.236;2024-01-27T01:18:16;102537.69;;;5.58;69.33
49072;BME280;74284;52.610;10.236;2024-01-27T01:20:44;102536.72;;;5.47;70.30
49072;BME280;74284;52.610;10.236;2024-01-27T01:23:10;102537.63;;;5.52;69.89
49072;BME280;74284;52.610;10.236;2024-01-27T01:25:41;102536.75;;;5.52;70.45
49072;BME280;74284;52.610;10.236;2024-01-27T01:28:12;102545.50;;;5.46;70.80
49072;BME280;74284;52.610;10.236;2024-01-27T01:30:53;102534.13;;;5.50;70.90
49072;BME280;74284;52.610;10.236;2024-01-27T01:33:19;102528.88;;;5.55;70.19
49072;BME280;74284;52.610;10.236;2024-01-27T01:35:44;102528.03;;;5.60;70.77
49072;BME280;74284;52.610;10.236;2024-01-27T01:38:16;102528.91;;;5.59;70.83
49072;BME280;74284;52.610;10.236;2024-01-27T01:40:42;102533.19;;;5.42;71.54
49072;BME280;74284;52.610;10.236;2024-01-27T01:43:11;102537.69;;;5.58;71.49
49072;BME280;74284;52.610;10.236;2024-01-27T01:45:42;102540.41;;;5.77;70.05
49072;BME280;74284;52.610;10.236;2024-01-27T01:48:07;102544.78;;;5.76;70.52
49072;BME280;74284;52.610;10.236;2024-01-27T01:50:34;102554.47;;;5.77;70.80
49072;BME280;74284;52.610;10.236;2024-01-27T01:53:00;102563.25;;;5.79;70.68
49072;BME280;74284;52.610;10.236;2024-01-27T01:55:29;102559.72;;;5.74;71.46
49072;BME280;74284;52.610;10.236;2024-01-27T01:57:54;102573.56;;;5.44;73.07
49072;BME280;74284;52.610;10.236;2024-01-27T02:00:22;102578.13;;;5.71;71.56
49072;BME280;74284;52.610;10.236;2024-01-27T02:02:48;102584.34;;;5.84;71.28
49072;BME280;74284;52.610;10.236;2024-01-27T02:05:14;102580.84;;;5.89;71.00
49072;BME280;74284;52.610;10.236;2024-01-27T02:07:39;102580.66;;;5.54;73.22
49072;BME280;74284;52.610;10.236;2024-01-27T02:10:13;102579.00;;;5.72;72.83
49072;BME280;74284;52.610;10.236;2024-01-27T02:12:39;102574.69;;;5.84;72.17
49072;BME280;74284;52.610;10.236;2024-01-27T02:15:05;102582.59;;;5.83;71.94
49072;BME280;74284;52.610;10.236;2024-01-27T02:17:30;102584.34;;;5.90;71.57
49072;BME280;74284;52.610;10.236;2024-01-27T02:19:56;102591.34;;;5.85;71.94
49072;BME280;74284;52.610;10.236;2024-01-27T02:22:21;102596.69;;;5.91;72.03
49072;BME280;74284;52.610;10.236;2024-01-27T02:24:47;102590.50;;;5.86;71.93
49072;BME280;74284;52.610;10.236;2024-01-27T02:27:12;102593.97;;;5.80;72.19
49072;BME280;74284;52.610;10.236;2024-01-27T02:29:38;102598.34;;;5.78;72.61
49072;BME280;74284;52.610;10.236;2024-01-27T02:32:03;102600.13;;;5.85;72.12
49072;BME280;74284;52.610;10.236;2024-01-27T02:34:29;102606.38;;;6.00;72.08
49072;BME280;74284;52.610;10.236;2024-01-27T02:36:57;102602.81;;;5.93;71.24
49072;BME280;74284;52.610;10.236;2024-01-27T02:39:23;102602.75;;;5.81;72.50
49072;BME280;74284;52.610;10.236;2024-01-27T02:41:48;102618.53;;;5.75;72.53
49072;BME280;74284;52.610;10.236;2024-01-27T02:44:14;102610.69;;;5.82;72.11
49072;BME280;74284;52.610;10.236;2024-01-27T02:46:39;102618.41;;;5.56;73.02
49072;BME280;74284;52.610;10.236;2024-01-27T02:49:08;102625.38;;;5.45;73.98
49072;BME280;74284;52.610;10.236;2024-01-27T02:51:39;102629.69;;;5.38;74.94
49072;BME280;74284;52.610;10.236;2024-01-27T02:54:17;102626.97;;;5.35;75.07
49072;BME280;74284;52.610;10.236;2024-01-27T02:56:49;102631.50;;;5.49;74.38
49072;BME280;74284;52.610;10.236;2024-01-27T02:59:14;102635.88;;;5.44;74.40
49072;BME280;74284;52.610;10.236;2024-01-27T03:01:40;102642.84;;;5.38;74.77
49072;BME280;74284;52.610;10.236;2024-01-27T03:04:15;102647.22;;;5.39;74.84
49072;BME280;74284;52.610;10.236;2024-01-27T03:06:43;102651.63;;;5.37;74.92
49072;BME280;74284;52.610;10.236;2024-01-27T03:09:13;102655.06;;;5.32;75.39
49072;BME280;74284;52.610;10.236;2024-01-27T03:11:41;102657.69;;;5.33;75.28
49072;BME280;74284;52.610;10.236;2024-01-27T03:14:07;102662.19;;;5.41;74.80
49072;BME280;74284;52.610;10.236;2024-01-27T03:16:49;102662.16;;;5.39;74.37
49072;BME280;74284;52.610;10.236;2024-01-27T03:19:15;102656.94;;;5.45;73.81
49072;BME280;74284;52.610;10.236;2024-01-27T03:21:46;102662.16;;;5.39;74.86
49072;BME280;74284;52.610;10.236;2024-01-27T03:24:14;102654.94;;;5.18;75.56
49072;BME280;74284;52.610;10.236;2024-01-27T03:26:40;102668.13;;;5.24;75.93
49072;BME280;74284;52.610;10.236;2024-01-27T03:29:05;102665.72;;;5.46;74.19
49072;BME280;74284;52.610;10.236;2024-01-27T03:31:41;102672.69;;;5.37;74.39
49072;BME280;74284;52.610;10.236;2024-01-27T03:34:07;102677.94;;;5.37;74.92
49072;BME280;74284;52.610;10.236;2024-01-27T03:36:32;102672.53;;;5.25;75.15
49072;BME280;74284;52.610;10.236;2024-01-27T03:38:58;102688.34;;;5.27;75.25
49072;BME280;74284;52.610;10.236;2024-01-27T03:41:24;102691.19;;;5.45;74.88
49072;BME280;74284;52.610;10.236;2024-01-27T03:43:52;102680.44;;;5.27;74.53
49072;BME280;74284;52.610;10.236;2024-01-27T03:46:26;102694.47;;;5.26;74.92
49072;BME280;74284;52.610;10.236;2024-01-27T03:48:52;102698.84;;;5.25;74.52
49072;BME280;74284;52.610;10.236;2024-01-27T03:51:20;102697.03;;;5.20;75.35
49072;BME280;74284;52.610;10.236;2024-01-27T03:53:57;102703.19;;;5.22;74.72
49072;BME280;74284;52.610;10.236;2024-01-27T03:56:26;102703.19;;;5.19;75.01
49072;BME280;74284;52.610;10.236;2024-01-27T03:58:54;102706.69;;;5.18;75.24
49072;BME280;74284;52.610;10.236;2024-01-27T04:01:20;102704.00;;;5.16;75.18
49072;BME280;74284;52.610;10.236;2024-01-27T04:03:49;102712.03;;;5.30;74.62
49072;BME280;74284;52.610;10.236;2024-01-27T04:06:17;102704.09;;;5.25;74.31
49072;BME280;74284;52.610;10.236;2024-01-27T04:09:24;102698.84;;;5.24;74.75
49072;BME280;74284;52.610;10.236;2024-01-27T04:12:00;102703.97;;;5.11;74.74
49072;BME280;74284;52.610;10.236;2024-01-27T04:14:34;102716.25;;;5.12;74.64
49072;BME280;74284;52.610;10.236;2024-01-27T04:17:07;102722.38;;;5.10;74.99
49072;BME280;74284;52.610;10.236;2024-01-27T04:19:36;102717.25;;;5.24;74.32
49072;BME280;74284;52.610;10.236;2024-01-27T04:22:09;102720.81;;;5.27;74.08
49072;BME280;74284;52.610;10.236;2024-01-27T04:24:41;102726.84;;;5.19;74.06
49072;BME280;74284;52.610;10.236;2024-01-27T04:27:12;102718.13;;;5.26;73.54
49072;BME280;74284;52.610;10.236;2024-01-27T04:29:44;102725.16;;;5.24;73.44
49072;BME280;74284;52.610;10.236;2024-01-27T04:32:17;102721.41;;;5.03;74.46
49072;BME280;74284;52.610;10.236;2024-01-27T04:34:46;102723.25;;;5.09;73.94
49072;BME280;74284;52.610;10.236;2024-01-27T04:37:23;102713.66;;;5.16;73.66
49072;BME280;74284;52.610;10.236;2024-01-27T04:39:48;102726.50;;;4.86;74.10
49072;BME280;74284;52.610;10.236;2024-01-27T04:42:22;102715.00;;;4.77;74.36
49072;BME280;74284;52.610;10.236;2024-01-27T04:44:50;102727.13;;;4.64;75.58
49072;BME280;74284;52.610;10.236;2024-01-27T04:50:20;102729.59;;;4.53;76.06
49072;BME280;74284;52.610;10.236;2024-01-27T04:53:19;102737.53;;;4.55;76.47
49072;BME280;74284;52.610;10.236;2024-01-27T04:59:10;102736.59;;;4.50;75.82
49072;BME280;74284;52.610;10.236;2024-01-27T05:01:44;102741.53;;;4.28;76.48
49072;BME280;74284;52.610;10.236;2024-01-27T05:04:37;102735.53;;;4.37;76.30
49072;BME280;74284;52.610;10.236;2024-01-27T05:07:33;102735.41;;;4.31;76.47
49072;BME280;74284;52.610;10.236;2024-01-27T05:10:33;102737.16;;;4.27;76.21
49072;BME280;74284;52.610;10.236;2024-01-27T05:13:43;102743.28;;;4.29;76.44
49072;BME280;74284;52.610;10.236;2024-01-27T05:16:31;102742.09;;;4.06;76.97
49072;BME280;74284;52.610;10.236;2024-01-27T05:22:41;102751.66;;;4.02;77.04
49072;BME280;74284;52.610;10.236;2024-01-27T05:25:36;102741.88;;;3.92;77.46
49072;BME280;74284;52.610;10.236;2024-01-27T05:28:07;102748.59;;;3.76;78.73
49072;BME280;74284;52.610;10.236;2024-01-27T05:39:31;102752.94;;;3.73;77.94
49072;BME280;74284;52.610;10.236;2024-01-27T05:42:18;102752.94;;;3.73;78.17
49072;BME280;74284;52.610;10.236;2024-01-27T05:51:40;102766.75;;;3.63;79.34
49072;BME280;74284;52.610;10.236;2024-01-27T05:55:04;102767.53;;;3.57;78.99
49072;BME280;74284;52.610;10.236;2024-01-27T05:57:46;102772.72;;;3.52;79.40
49072;BME280;74284;52.610;10.236;2024-01-27T06:00:54;102775.47;;;3.60;78.92
49072;BME280;74284;52.610;10.236;2024-01-27T06:03:43;102779.50;;;3.41;79.59
49072;BME280;74284;52.610;10.236;2024-01-27T06:06:43;102778.66;;;3.42;80.12
49072;BME280;74284;52.610;10.236;2024-01-27T06:09:24;102781.19;;;3.36;80.24
49072;BME280;74284;52.610;10.236;2024-01-27T06:12:06;102783.06;;;3.45;79.72
49072;BME280;74284;52.610;10.236;2024-01-27T06:14:43;102793.63;;;3.48;79.52
49072;BME280;74284;52.610;10.236;2024-01-27T06:17:12;102790.03;;;3.44;78.95
49072;BME280;74284;52.610;10.236;2024-01-27T06:19:43;102786.28;;;3.30;80.13
49072;BME280;74284;52.610;10.236;2024-01-27T06:22:18;102796.06;;;3.39;80.06
49072;BME280;74284;52.610;10.236;2024-01-27T06:24:43;102790.63;;;3.28;79.92
49072;BME280;74284;52.610;10.236;2024-01-27T06:27:09;102800.63;;;3.47;79.16
49072;BME280;74284;52.610;10.236;2024-01-27T06:29:34;102811.47;;;3.20;80.38
49072;BME280;74284;52.610;10.236;2024-01-27T06:32:00;102810.88;;;3.35;79.83
49072;BME280;74284;52.610;10.236;2024-01-27T06:34:25;102807.25;;;3.28;80.24
49072;BME280;74284;52.610;10.236;2024-01-27T06:36:51;102807.34;;;3.34;79.61
49072;BME280;74284;52.610;10.236;2024-01-27T06:39:16;102808.06;;;3.24;79.81
49072;BME280;74284;52.610;10.236;2024-01-27T06:41:43;102808.75;;;3.16;80.08
49072;BME280;74284;52.610;10.236;2024-01-27T06:44:08;102813.22;;;3.20;80.76
49072;BME280;74284;52.610;10.236;2024-01-27T06:46:34;102811.75;;;3.35;79.84
49072;BME280;74284;52.610;10.236;2024-01-27T06:48:59;102821.16;;;3.24;80.00
49072;BME280;74284;52.610;10.236;2024-01-27T06:51:27;102829.00;;;3.23;79.95
49072;BME280;74284;52.610;10.236;2024-01-27T06:53:53;102826.47;;;3.27;79.84
49072;BME280;74284;52.610;10.236;2024-01-27T06:56:18;102830.78;;;3.24;79.60
49072;BME280;74284;52.610;10.236;2024-01-27T06:58:44;102843.81;;;3.21;80.33
49072;BME280;74284;52.610;10.236;2024-01-27T07:01:12;102847.31;;;3.20;80.33
49072;BME280;74284;52.610;10.236;2024-01-27T07:03:41;102845.63;;;3.23;80.19
49072;BME280;74284;52.610;10.236;2024-01-27T07:06:06;102850.97;;;3.28;79.95
49072;BME280;74284;52.610;10.236;2024-01-27T07:08:32;102853.50;;;3.23;79.84
49072;BME280;74284;52.610;10.236;2024-01-27T07:10:58;102856.03;;;3.19;80.34
49072;BME280;74284;52.610;10.236;2024-01-27T07:13:23;102856.03;;;3.19;80.39
49072;BME280;74284;52.610;10.236;2024-01-27T07:15:48;102859.81;;;3.33;80.50
49072;BME280;74284;52.610;10.236;2024-01-27T07:18:14;102857.97;;;3.29;79.61
49072;BME280;74284;52.610;10.236;2024-01-27T07:20:40;102860.91;;;3.44;79.38
49072;BME280;74284;52.610;10.236;2024-01-27T07:23:06;102863.13;;;3.23;80.52
49072;BME280;74284;52.610;10.236;2024-01-27T07:25:31;102864.41;;;3.45;79.23
49072;BME280;74284;52.610;10.236;2024-01-27T07:27:56;102864.81;;;3.21;80.12
49072;BME280;74284;52.610;10.236;2024-01-27T07:30:22;102868.84;;;3.49;78.93
49072;BME280;74284;52.610;10.236;2024-01-27T07:32:47;102880.88;;;3.36;78.95
49072;BME280;74284;52.610;10.236;2024-01-27T07:35:12;102877.47;;;3.42;78.56
49072;BME280;74284;52.610;10.236;2024-01-27T07:37:38;102881.88;;;3.43;78.45
49072;BME280;74284;52.610;10.236;2024-01-27T07:40:04;102880.03;;;3.39;78.51
49072;BME280;74284;52.610;10.236;2024-01-27T07:42:30;102879.31;;;3.46;78.25
49072;BME280;74284;52.610;10.236;2024-01-27T07:44:55;102868.78;;;3.44;78.15
49072;BME280;74284;52.610;10.236;2024-01-27T07:47:21;102873.81;;;3.33;78.87
49072;BME280;74284;52.610;10.236;2024-01-27T07:49:46;102873.88;;;3.37;79.46
49072;BME280;74284;52.610;10.236;2024-01-27T07:52:16;102872.44;;;3.54;78.20
49072;BME280;74284;52.610;10.236;2024-01-27T07:57:43;102876.63;;;3.43;79.37
49072;BME280;74284;52.610;10.236;2024-01-27T08:00:11;102876.69;;;3.46;78.41
49072;BME280;74284;52.610;10.236;2024-01-27T08:02:43;102882.81;;;3.46;79.17
49072;BME280;74284;52.610;10.236;2024-01-27T08:05:12;102885.97;;;3.74;78.02
49072;BME280;74284;52.610;10.236;2024-01-27T08:07:40;102899.25;;;3.81;77.83
49072;BME280;74284;52.610;10.236;2024-01-27T08:10:06;102888.00;;;3.90;76.78
49072;BME280;74284;52.610;10.236;2024-01-27T08:12:40;102900.31;;;3.91;76.53
49072;BME280;74284;52.610;10.236;2024-01-27T08:15:09;102900.13;;;3.82;77.61
49072;BME280;74284;52.610;10.236;2024-01-27T08:17:35;102898.22;;;3.73;78.37
49072;BME280;74284;52.610;10.236;2024-01-27T08:20:04;102905.31;;;3.77;78.76
49072;BME280;74284;52.610;10.236;2024-01-27T08:25:48;102910.72;;;3.86;78.05
49072;BME280;74284;52.610;10.236;2024-01-27T08:28:58;102910.91;;;3.96;77.89
49072;BME280;74284;52.610;10.236;2024-01-27T08:31:29;102915.19;;;3.92;78.12
49072;BME280;74284;52.610;10.236;2024-01-27T08:34:22;102921.66;;;4.09;78.30
49072;BME280;74284;52.610;10.236;2024-01-27T08:37:18;102927.47;;;3.95;78.34
49072;BME280;74284;52.610;10.236;2024-01-27T08:39:49;102921.75;;;4.16;77.74
49072;BME280;74284;52.610;10.236;2024-01-27T08:42:51;102920.44;;;4.42;77.61
49072;BME280;74284;52.610;10.236;2024-01-27T08:45:24;102920.94;;;4.18;77.43
49072;BME280;74284;52.610;10.236;2024-01-27T08:50:52;102911.97;;;4.61;75.60
49072;BME280;74284;52.610;10.236;2024-01-27T08:53:44;102925.34;;;4.75;74.88
49072;BME280;74284;52.610;10.236;2024-01-27T08:56:20;102930.19;;;4.49;75.16
49072;BME280;74284;52.610;10.236;2024-01-27T08:58:45;102936.31;;;4.48;76.24
49072;BME280;74284;52.610;10.236;2024-01-27T09:01:12;102938.41;;;4.71;75.27
49072;BME280;74284;52.610;10.236;2024-01-27T09:03:40;102936.59;;;4.67;74.73
49072;BME280;74284;52.610;10.236;2024-01-27T09:06:09;102939.22;;;4.65;74.74
49072;BME280;74284;52.610;10.236;2024-01-27T09:08:38;102942.22;;;4.89;74.87
49072;BME280;74284;52.610;10.236;2024-01-27T09:11:19;102947.59;;;4.97;73.80
49072;BME280;74284;52.610;10.236;2024-01-27T09:13:45;102949.09;;;4.80;74.38
49072;BME280;74284;52.610;10.236;2024-01-27T09:16:17;102943.19;;;4.96;74.46
49072;BME280;74284;52.610;10.236;2024-01-27T09:18:46;102946.16;;;5.18;73.33
49072;BME280;74284;52.610;10.236;2024-01-27T09:21:11;102947.97;;;5.25;73.09
49072;BME280;74284;52.610;10.236;2024-01-27T09:23:37;102949.53;;;5.10;73.42
49072;BME280;74284;52.610;10.236;2024-01-27T09:26:02;102949.13;;;5.44;72.24
49072;BME280;74284;52.610;10.236;2024-01-27T09:28:28;102946.22;;;5.22;72.42
49072;BME280;74284;52.610;10.236;2024-01-27T09:30:53;102948.97;;;5.31;72.59
49072;BME280;74284;52.610;10.236;2024-01-27T09:33:19;102951.47;;;5.22;73.44
49072;BME280;74284;52.610;10.236;2024-01-27T09:35:48;102942.66;;;5.22;73.56
49072;BME280;74284;52.610;10.236;2024-01-27T09:38:14;102944.72;;;5.41;73.14
49072;BME280;74284;52.610;10.236;2024-01-27T09:40:40;102957.19;;;5.54;71.72
49072;BME280;74284;52.610;10.236;2024-01-27T09:43:06;102955.56;;;5.66;71.61
49072;BME280;74284;52.610;10.236;2024-01-27T09:45:32;102958.28;;;5.76;71.19
49072;BME280;74284;52.610;10.236;2024-01-27T09:47:59;102956.56;;;5.77;71.26
49072;BME280;74284;52.610;10.236;2024-01-27T09:50:26;102966.41;;;5.92;70.89
49072;BME280;74284;52.610;10.236;2024-01-27T09:52:53;102960.97;;;5.79;71.27
49072;BME280;74284;52.610;10.236;2024-01-27T09:55:18;102969.81;;;5.84;71.09
49072;BME280;74284;52.610;10.236;2024-01-27T09:57:44;102964.69;;;5.97;70.41
49072;BME280;74284;52.610;10.236;2024-01-27T10:00:12;102965.63;;;6.03;70.74
49072;BME280;74284;52.610;10.236;2024-01-27T10:02:46;102971.84;;;6.10;69.98
49072;BME280;74284;52.610;10.236;2024-01-27T10:05:13;102971.72;;;5.98;70.69
49072;BME280;74284;52.610;10.236;2024-01-27T10:07:39;102974.28;;;5.92;70.50
49072;BME280;74284;52.610;10.236;2024-01-27T10:10:05;102977.97;;;6.07;69.71
49072;BME280;74284;52.610;10.236;2024-01-27T10:12:31;102973.84;;;6.32;68.18
49072;BME280;74284;52.610;10.236;2024-01-27T10:14:57;102968.56;;;6.35;69.15
49072;BME280;74284;52.610;10.236;2024-01-27T10:17:24;102971.31;;;6.46;68.63
49072;BME280;74284;52.610;10.236;2024-01-27T10:20:02;102967.88;;;6.56;67.77
49072;BME280;74284;52.610;10.236;2024-01-27T10:22:29;102963.63;;;6.72;67.22
49072;BME280;74284;52.610;10.236;2024-01-27T10:24:54;102968.47;;;7.36;65.77
49072;BME280;74284;52.610;10.236;2024-01-27T10:27:21;102963.31;;;7.68;63.80
49072;BME280;74284;52.610;10.236;2024-01-27T10:29:55;102962.72;;;6.72;65.04
49072;BME280;74284;52.610;10.236;2024-01-27T10:32:21;102966.94;;;6.48;67.28
49072;BME280;74284;52.610;10.236;2024-01-27T10:35:10;102966.19;;;6.66;67.03
49072;BME280;74284;52.610;10.236;2024-01-27T10:37:35;102968.84;;;6.66;67.12
49072;BME280;74284;52.610;10.236;2024-01-27T10:40:05;102969.78;;;6.76;67.44
49072;BME280;74284;52.610;10.236;2024-01-27T10:42:34;102968.13;;;6.87;66.43
49072;BME280;74284;52.610;10.236;2024-01-27T10:45:00;102979.59;;;6.94;67.02
49072;BME280;74284;52.610;10.236;2024-01-27T10:47:29;102963.75;;;6.94;66.57
49072;BME280;74284;52.610;10.236;2024-01-27T10:49:56;102947.94;;;6.92;67.06
49072;BME280;74284;52.610;10.236;2024-01-27T10:52:24;102953.25;;;6.97;66.87
49072;BME280;74284;52.610;10.236;2024-01-27T10:54:57;102947.19;;;7.16;66.24
49072;BME280;74284;52.610;10.236;2024-01-27T10:57:24;102950.72;;;7.18;65.98
49072;BME280;74284;52.610;10.236;2024-01-27T10:59:53;102944.63;;;7.25;65.44
49072;BME280;74284;52.610;10.236;2024-01-27T11:02:19;102943.78;;;7.34;65.15
49072;BME280;74284;52.610;10.236;2024-01-27T11:04:45;102950.84;;;7.35;65.48
49072;BME280;74284;52.610;10.236;2024-01-27T11:07:13;102948.44;;;8.07;64.46
49072;BME280;74284;52.610;10.236;2024-01-27T11:09:39;102955.31;;;7.45;64.71
49072;BME280;74284;52.610;10.236;2024-01-27T11:12:05;102953.41;;;7.23;64.54
49072;BME280;74284;52.610;10.236;2024-01-27T11:14:30;102951.72;;;7.32;65.41
49072;BME280;74284;52.610;10.236;2024-01-27T11:16:56;102946.41;;;7.29;65.91
49072;BME280;74284;52.610;10.236;2024-01-27T11:19:22;102944.81;;;7.65;64.17
49072;BME280;74284;52.610;10.236;2024-01-27T11:21:48;102945.69;;;7.70;64.82
49072;BME280;74284;52.610;10.236;2024-01-27T11:24:17;102943.97;;;7.72;64.15
49072;BME280;74284;52.610;10.236;2024-01-27T11:26:43;102940.38;;;7.62;63.77
49072;BME280;74284;52.610;10.236;2024-01-27T11:29:09;102944.88;;;7.99;63.57
49072;BME280;74284;52.610;10.236;2024-01-27T11:31:43;102952.81;;;7.86;64.30
49072;BME280;74284;52.610;10.236;2024-01-27T11:34:10;102956.34;;;7.96;63.48
49072;BME280;74284;52.610;10.236;2024-01-27T11:36:42;102959.84;;;7.87;63.63
49072;BME280;74284;52.610;10.236;2024-01-27T11:39:23;102965.13;;;7.89;63.54
49072;BME280;74284;52.610;10.236;2024-01-27T11:41:49;102961.69;;;8.08;63.38
49072;BME280;74284;52.610;10.236;2024-01-27T11:44:14;102967.84;;;8.21;62.01
49072;BME280;74284;52.610;10.236;2024-01-27T11:46:40;102959.88;;;8.03;62.64
49072;BME280;74284;52.610;10.236;2024-01-27T11:49:06;102959.03;;;8.24;61.96
49072;BME280;74284;52.610;10.236;2024-01-27T11:51:31;102956.38;;;8.01;62.98
49072;BME280;74284;52.610;10.236;2024-01-27T11:53:57;102952.88;;;8.25;62.91
49072;BME280;74284;52.610;10.236;2024-01-27T11:56:22;102952.88;;;8.28;62.11
49072;BME280;74284;52.610;10.236;2024-01-27T11:58:48;102953.75;;;8.34;61.89
49072;BME280;74284;52.610;10.236;2024-01-27T12:01:14;102950.25;;;8.41;61.51
49072;BME280;74284;52.610;10.236;2024-01-27T12:03:40;102944.06;;;8.68;60.86
49072;BME280;74284;52.610;10.236;2024-01-27T12:06:07;102957.28;;;8.67;61.42
49072;BME280;74284;52.610;10.236;2024-01-27T12:08:35;102954.63;;;8.56;61.16
49072;BME280;74284;52.610;10.236;2024-01-27T12:11:01;102956.41;;;8.60;60.74
49072;BME280;74284;52.610;10.236;2024-01-27T12:13:27;102958.19;;;8.67;60.03
49072;BME280;74284;52.610;10.236;2024-01-27T12:15:52;102951.13;;;8.73;60.00
49072;BME280;74284;52.610;10.236;2024-01-27T12:18:18;102946.69;;;8.76;59.59
49072;BME280;74284;52.610;10.236;2024-01-27T12:20:44;102956.38;;;8.76;60.18
49072;BME280;74284;52.610;10.236;2024-01-27T12:23:10;102953.72;;;9.09;58.75
49072;BME280;74284;52.610;10.236;2024-01-27T12:25:35;102967.88;;;8.78;59.99
49072;BME280;74284;52.610;10.236;2024-01-27T12:28:04;102960.78;;;9.12;58.37
49072;BME280;74284;52.610;10.236;2024-01-27T12:30:33;102962.56;;;9.08;57.82
49072;BME280;74284;52.610;10.236;2024-01-27T12:33:00;102960.81;;;9.09;58.49
49072;BME280;74284;52.610;10.236;2024-01-27T12:35:26;102960.78;;;9.12;58.59
49072;BME280;74284;52.610;10.236;2024-01-27T12:37:52;102955.50;;;9.04;58.45
49072;BME280;74284;52.610;10.236;2024-01-27T12:40:19;102951.94;;;9.22;57.57
49072;BME280;74284;52.610;10.236;2024-01-27T12:42:44;102954.56;;;9.31;57.85
49072;BME280;74284;52.610;10.236;2024-01-27T12:45:09;102945.78;;;9.11;58.07
49072;BME280;74284;52.610;10.236;2024-01-27T12:47:35;102954.56;;;9.24;58.11
49072;BME280;74284;52.610;10.236;2024-01-27T12:50:00;102962.53;;;9.14;57.63
49072;BME280;74284;52.610;10.236;2024-01-27T12:52:25;102968.69;;;9.26;57.45
49072;BME280;74284;52.610;10.236;2024-01-27T12:54:51;102970.53;;;8.93;57.82
49072;BME280;74284;52.610;10.236;2024-01-27T12:57:16;102965.22;;;8.73;58.10
49072;BME280;74284;52.610;10.236;2024-01-27T12:59:43;102964.31;;;8.71;58.16
49072;BME280;74284;52.610;10.236;2024-01-27T13:02:08;102963.44;;;8.71;58.33
49072;BME280;74284;52.610;10.236;2024-01-27T13:04:33;102957.28;;;8.98;57.81
49072;BME280;74284;52.610;10.236;2024-01-27T13:06:59;102969.59;;;9.11;56.59
49072;BME280;74284;52.610;10.236;2024-01-27T13:09:25;102960.78;;;9.15;57.29
49072;BME280;74284;52.610;10.236;2024-01-27T13:11:50;102966.13;;;8.95;58.03
49072;BME280;74284;52.610;10.236;2024-01-27T13:14:15;102959.03;;;9.05;57.74
49072;BME280;74284;52.610;10.236;2024-01-27T13:16:43;102967.00;;;8.83;58.38
49072;BME280;74284;52.610;10.236;2024-01-27T13:19:09;102965.22;;;8.73;58.57
49072;BME280;74284;52.610;10.236;2024-01-27T13:21:34;102963.47;;;8.89;57.70
49072;BME280;74284;52.610;10.236;2024-01-27T13:24:00;102962.59;;;8.88;58.65
49072;BME280;74284;52.610;10.236;2024-01-27T13:26:27;102952.88;;;8.77;58.06
49072;BME280;74284;52.610;10.236;2024-01-27T13:28:52;102951.06;;;9.03;57.43
49072;BME280;74284;52.610;10.236;2024-01-27T13:31:18;102951.06;;;9.11;57.07
49072;BME280;74284;52.610;10.236;2024-01-27T13:33:43;102939.59;;;9.15;56.89
49072;BME280;74284;52.610;10.236;2024-01-27T13:36:09;102957.16;;;9.40;56.46